createdAt,value
2017-12-05T00:00:25.532Z,0
2017-12-05T00:01:35.221Z,0
2017-12-05T00:02:45.174Z,0
2017-12-05T00:03:54.861Z,0
2017-12-05T00:05:04.825Z,0
2017-12-05T00:06:14.516Z,0
2017-12-05T00:07:24.202Z,0
2017-12-05T00:08:34.149Z,0
2017-12-05T00:09:44.090Z,0
2017-12-05T00:10:53.786Z,0
2017-12-05T00:12:03.784Z,0
2017-12-05T00:13:13.472Z,0
2017-12-05T00:14:23.190Z,0
2017-12-05T00:15:32.879Z,0
2017-12-05T00:16:42.833Z,0
2017-12-05T00:17:52.576Z,0
2017-12-05T00:19:02.259Z,0
2017-12-05T00:20:11.965Z,0
2017-12-05T00:21:21.656Z,0
2017-12-05T00:22:31.610Z,0
2017-12-05T00:23:41.548Z,0
2017-12-05T00:24:50.970Z,0
2017-12-05T00:26:00.651Z,0
2017-12-05T00:27:10.596Z,0
2017-12-05T00:28:19.778Z,0
2017-12-05T00:29:29.478Z,0
2017-12-05T00:30:39.424Z,0
2017-12-05T00:31:49.113Z,0
2017-12-05T00:32:58.801Z,0
2017-12-05T00:34:08.494Z,0
2017-12-05T00:35:18.505Z,0
2017-12-05T00:36:28.466Z,0
2017-12-05T00:37:38.464Z,0
2017-12-05T00:38:48.154Z,0
2017-12-05T00:39:57.855Z,0
2017-12-05T00:41:07.280Z,0
2017-12-05T00:42:16.716Z,0
2017-12-05T00:43:26.150Z,0
2017-12-05T00:44:36.133Z,0
2017-12-05T00:45:45.814Z,0
2017-12-05T00:46:54.980Z,0
2017-12-05T00:48:04.680Z,0
2017-12-05T00:49:14.121Z,0
2017-12-05T00:50:23.820Z,0
2017-12-05T00:51:33.510Z,0
2017-12-05T00:52:43.454Z,0
2017-12-05T00:53:53.158Z,0
2017-12-05T00:55:03.101Z,0
2017-12-05T00:56:12.792Z,0
2017-12-05T00:57:22.475Z,0
2017-12-05T00:58:31.891Z,0
2017-12-05T00:59:41.905Z,0
2017-12-05T01:00:51.339Z,0
2017-12-05T01:02:01.024Z,0
2017-12-05T01:03:10.707Z,0
2017-12-05T01:04:20.137Z,0
2017-12-05T01:05:29.817Z,0
2017-12-05T01:06:39.514Z,0
2017-12-05T01:07:49.458Z,0
2017-12-05T01:08:59.424Z,0
2017-12-05T01:10:09.376Z,0
2017-12-05T01:11:19.325Z,0
2017-12-05T01:12:28.491Z,0
2017-12-05T01:13:38.179Z,0
2017-12-05T01:14:47.864Z,0
2017-12-05T01:15:58.103Z,0
2017-12-05T01:17:07.783Z,0
2017-12-05T01:18:17.716Z,0
2017-12-05T01:19:27.394Z,0
2017-12-05T01:20:37.083Z,0
2017-12-05T01:21:46.772Z,0
2017-12-05T01:22:56.508Z,0
2017-12-05T01:24:05.923Z,0
2017-12-05T01:25:15.611Z,0
2017-12-05T01:26:25.307Z,0
2017-12-05T01:27:34.992Z,0
2017-12-05T01:28:44.936Z,0
2017-12-05T01:29:54.623Z,0
2017-12-05T01:31:04.581Z,0
2017-12-05T01:32:14.265Z,0
2017-12-05T01:33:24.212Z,0
2017-12-05T01:34:33.914Z,0
2017-12-05T01:35:43.859Z,0
2017-12-05T01:36:53.539Z,0
2017-12-05T01:38:03.232Z,0
2017-12-05T01:39:13.183Z,0
2017-12-05T01:40:23.153Z,0
2017-12-05T01:41:32.845Z,0
2017-12-05T01:42:42.531Z,0
2017-12-05T01:43:52.479Z,0
2017-12-05T01:45:02.416Z,0
2017-12-05T01:46:11.602Z,0
2017-12-05T01:47:21.558Z,0
2017-12-05T01:48:31.257Z,0
2017-12-05T01:49:40.942Z,0
2017-12-05T01:50:50.905Z,0
2017-12-05T01:52:00.584Z,0
2017-12-05T01:53:10.279Z,0
2017-12-05T01:54:19.971Z,0
2017-12-05T01:55:29.908Z,0
2017-12-05T01:56:39.861Z,0
2017-12-05T01:57:49.551Z,0
2017-12-05T01:58:59.487Z,0
2017-12-05T02:00:09.422Z,0
2017-12-05T02:01:19.106Z,0
2017-12-05T02:02:28.824Z,0
2017-12-05T02:03:38.509Z,0
2017-12-05T02:04:48.446Z,0
2017-12-05T02:05:58.397Z,0
2017-12-05T02:07:08.332Z,0
2017-12-05T02:08:17.765Z,0
2017-12-05T02:09:27.955Z,0
2017-12-05T02:10:37.928Z,0
2017-12-05T02:11:47.864Z,0
2017-12-05T02:12:57.811Z,0
2017-12-05T02:14:07.515Z,0
2017-12-05T02:15:17.205Z,0
2017-12-05T02:16:27.148Z,0
2017-12-05T02:17:36.824Z,0
2017-12-05T02:18:46.764Z,0
2017-12-05T02:19:56.190Z,0
2017-12-05T02:21:05.874Z,0
2017-12-05T02:22:15.829Z,0
2017-12-05T02:23:25.493Z,0
2017-12-05T02:24:35.182Z,0
2017-12-05T02:25:45.425Z,0
2017-12-05T02:26:55.114Z,0
2017-12-05T02:28:04.541Z,0
2017-12-05T02:29:14.487Z,0
2017-12-05T02:30:23.914Z,0
2017-12-05T02:31:33.854Z,0
2017-12-05T02:32:43.813Z,0
2017-12-05T02:33:53.505Z,0
2017-12-05T02:35:03.489Z,0
2017-12-05T02:36:13.184Z,0
2017-12-05T02:37:22.883Z,0
2017-12-05T02:38:32.849Z,0
2017-12-05T02:39:42.535Z,0
2017-12-05T02:40:52.484Z,0
2017-12-05T02:42:02.676Z,0
2017-12-05T02:43:12.108Z,0
2017-12-05T02:44:22.059Z,0
2017-12-05T02:45:31.749Z,0
2017-12-05T02:46:41.470Z,0
2017-12-05T02:47:51.419Z,0
2017-12-05T02:49:01.370Z,0
2017-12-05T02:50:10.540Z,0
2017-12-05T02:51:20.515Z,0
2017-12-05T02:52:30.205Z,0
2017-12-05T02:53:40.138Z,0
2017-12-05T02:54:49.559Z,0
2017-12-05T02:55:58.996Z,0
2017-12-05T02:57:08.938Z,0
2017-12-05T02:58:18.892Z,0
2017-12-05T02:59:28.836Z,0
2017-12-05T03:00:38.774Z,0
2017-12-05T03:01:48.459Z,0
2017-12-05T03:02:58.143Z,0
2017-12-05T03:04:07.322Z,0
2017-12-05T03:05:17.263Z,0
2017-12-05T03:06:27.196Z,0
2017-12-05T03:07:36.884Z,0
2017-12-05T03:08:46.571Z,0
2017-12-05T03:09:56.244Z,0
2017-12-05T03:11:05.679Z,0
2017-12-05T03:12:15.616Z,0
2017-12-05T03:13:25.564Z,0
2017-12-05T03:14:35.261Z,0
2017-12-05T03:15:44.950Z,0
2017-12-05T03:16:54.694Z,0
2017-12-05T03:18:04.383Z,0
2017-12-05T03:19:14.328Z,0
2017-12-05T03:20:24.314Z,0
2017-12-05T03:21:34.251Z,0
2017-12-05T03:22:43.930Z,0
2017-12-05T03:23:53.354Z,0
2017-12-05T03:25:03.296Z,0
2017-12-05T03:26:12.982Z,0
2017-12-05T03:27:22.410Z,0
2017-12-05T03:28:31.839Z,0
2017-12-05T03:29:41.521Z,0
2017-12-05T03:30:51.480Z,0
2017-12-05T03:32:01.421Z,0
2017-12-05T03:33:11.370Z,0
2017-12-05T03:34:20.799Z,0
2017-12-05T03:35:30.765Z,0
2017-12-05T03:36:40.723Z,0
2017-12-05T03:37:50.412Z,0
2017-12-05T03:38:59.842Z,0
2017-12-05T03:40:09.796Z,0
2017-12-05T03:41:19.739Z,0
2017-12-05T03:42:29.420Z,0
2017-12-05T03:43:38.859Z,0
2017-12-05T03:44:48.806Z,0
2017-12-05T03:45:58.752Z,0
2017-12-05T03:47:08.465Z,0
2017-12-05T03:48:18.400Z,0
2017-12-05T03:49:27.574Z,0
2017-12-05T03:50:37.558Z,0
2017-12-05T03:51:46.986Z,0
2017-12-05T03:52:56.676Z,0
2017-12-05T03:54:06.361Z,0
2017-12-05T03:55:15.790Z,0
2017-12-05T03:56:25.497Z,0
2017-12-05T03:57:34.940Z,0
2017-12-05T03:58:44.903Z,0
2017-12-05T03:59:54.333Z,0
2017-12-05T04:01:04.020Z,0
2017-12-05T04:02:13.703Z,0
2017-12-05T04:03:23.646Z,0
2017-12-05T04:04:33.331Z,0
2017-12-05T04:05:43.032Z,0
2017-12-05T04:06:52.992Z,0
2017-12-05T04:08:02.670Z,0
2017-12-05T04:09:12.616Z,0
2017-12-05T04:10:22.041Z,0
2017-12-05T04:11:31.465Z,0
2017-12-05T04:12:40.886Z,0
2017-12-05T04:13:50.575Z,0
2017-12-05T04:15:00.518Z,0
2017-12-05T04:16:10.218Z,0
2017-12-05T04:17:19.908Z,0
2017-12-05T04:18:29.595Z,0
2017-12-05T04:19:39.538Z,0
2017-12-05T04:20:49.499Z,0
2017-12-05T04:21:59.194Z,0
2017-12-05T04:23:08.875Z,0
2017-12-05T04:24:18.814Z,0
2017-12-05T04:25:28.494Z,0
2017-12-05T04:26:38.172Z,0
2017-12-05T04:27:47.861Z,0
2017-12-05T04:28:57.542Z,0
2017-12-05T04:30:07.482Z,0
2017-12-05T04:31:16.923Z,0
2017-12-05T04:32:26.620Z,0
2017-12-05T04:33:36.554Z,0
2017-12-05T04:34:46.227Z,0
2017-12-05T04:35:55.909Z,0
2017-12-05T04:37:05.340Z,0
2017-12-05T04:38:15.026Z,0
2017-12-05T04:39:25.024Z,0
2017-12-05T04:40:34.715Z,0
2017-12-05T04:41:44.414Z,0
2017-12-05T04:42:54.358Z,0
2017-12-05T04:44:04.039Z,0
2017-12-05T04:45:13.727Z,0
2017-12-05T04:46:23.664Z,0
2017-12-05T04:47:33.350Z,0
2017-12-05T04:48:42.771Z,0
2017-12-05T04:49:52.451Z,0
2017-12-05T04:51:02.135Z,0
2017-12-05T04:52:12.083Z,0
2017-12-05T04:53:21.771Z,0
2017-12-05T04:54:31.475Z,0
2017-12-05T04:55:41.424Z,0
2017-12-05T04:56:51.122Z,0
2017-12-05T04:58:00.547Z,0
2017-12-05T04:59:09.975Z,0
2017-12-05T05:00:19.668Z,0
2017-12-05T05:01:29.344Z,0
2017-12-05T05:02:39.289Z,0
2017-12-05T05:03:48.991Z,0
2017-12-05T05:04:58.990Z,0
2017-12-05T05:06:08.421Z,0
2017-12-05T05:07:18.402Z,0
2017-12-05T05:08:28.359Z,0
2017-12-05T05:09:38.042Z,0
2017-12-05T05:10:47.720Z,0
2017-12-05T05:11:57.149Z,0
2017-12-05T05:13:06.829Z,0
2017-12-05T05:14:16.774Z,0
2017-12-05T05:15:25.686Z,0
2017-12-05T05:16:35.111Z,0
2017-12-05T05:17:44.795Z,0
2017-12-05T05:18:54.477Z,0
2017-12-05T05:20:04.388Z,0
2017-12-05T05:21:14.344Z,0
2017-12-05T05:22:23.775Z,0
2017-12-05T05:23:33.726Z,0
2017-12-05T05:24:43.676Z,0
2017-12-05T05:25:53.363Z,0
2017-12-05T05:27:03.325Z,0
2017-12-05T05:28:13.024Z,0
2017-12-05T05:29:22.727Z,0
2017-12-05T05:30:32.408Z,0
2017-12-05T05:31:42.367Z,0
2017-12-05T05:32:51.555Z,0
2017-12-05T05:34:01.245Z,0
2017-12-05T05:35:10.927Z,0
2017-12-05T05:36:20.630Z,0
2017-12-05T05:37:30.313Z,0
2017-12-05T05:38:40.253Z,0
2017-12-05T05:39:49.949Z,0
2017-12-05T05:40:59.906Z,0
2017-12-05T05:42:09.864Z,0
2017-12-05T05:43:19.050Z,0
2017-12-05T05:44:29.007Z,0
2017-12-05T05:45:38.188Z,0
2017-12-05T05:46:48.127Z,0
2017-12-05T05:47:57.570Z,0
2017-12-05T05:49:07.278Z,0
2017-12-05T05:50:16.985Z,0
2017-12-05T05:51:26.940Z,0
2017-12-05T05:52:36.893Z,0
2017-12-05T05:53:46.584Z,0
2017-12-05T05:54:56.544Z,0
2017-12-05T05:56:06.490Z,0
2017-12-05T05:57:16.587Z,0
2017-12-05T05:58:26.529Z,0
2017-12-05T05:59:35.962Z,0
2017-12-05T06:00:45.454Z,0
2017-12-05T06:01:55.400Z,0
2017-12-05T06:03:05.080Z,0
2017-12-05T06:04:15.027Z,0
2017-12-05T06:05:24.711Z,0
2017-12-05T06:06:34.395Z,0
2017-12-05T06:07:44.115Z,0
2017-12-05T06:08:54.069Z,0
2017-12-05T06:10:04.031Z,0
2017-12-05T06:11:13.981Z,0
2017-12-05T06:12:23.926Z,0
2017-12-05T06:13:33.363Z,0
2017-12-05T06:14:43.054Z,0
2017-12-05T06:15:53.047Z,0
2017-12-05T06:17:02.772Z,0
2017-12-05T06:18:12.714Z,0
2017-12-05T06:19:22.416Z,0
2017-12-05T06:20:32.363Z,0
2017-12-05T06:21:41.809Z,0
2017-12-05T06:22:51.495Z,0
2017-12-05T06:24:01.177Z,0
2017-12-05T06:25:10.870Z,4
2017-12-05T06:26:20.314Z,4
2017-12-05T06:27:29.747Z,4
2017-12-05T06:28:39.441Z,4
2017-12-05T06:29:48.872Z,4
2017-12-05T06:30:58.834Z,4
2017-12-05T06:32:08.776Z,8
2017-12-05T06:33:18.219Z,8
2017-12-05T06:34:27.675Z,8
2017-12-05T06:35:37.630Z,8
2017-12-05T06:36:47.069Z,8
2017-12-05T06:37:56.503Z,16
2017-12-05T06:39:06.474Z,16
2017-12-05T06:40:15.897Z,16
2017-12-05T06:41:25.343Z,16
2017-12-05T06:42:35.294Z,24
2017-12-05T06:43:44.989Z,28
2017-12-05T06:44:54.936Z,32
2017-12-05T06:46:04.881Z,40
2017-12-05T06:47:14.839Z,44
2017-12-05T06:48:24.775Z,56
2017-12-05T06:49:34.458Z,56
2017-12-05T06:50:43.898Z,68
2017-12-05T06:51:53.832Z,80
2017-12-05T06:53:03.801Z,80
2017-12-05T06:54:13.486Z,104
2017-12-05T06:55:23.442Z,120
2017-12-05T06:56:33.138Z,116
2017-12-05T06:57:42.831Z,132
2017-12-05T06:58:52.785Z,184
2017-12-05T07:00:02.485Z,196
2017-12-05T07:01:12.419Z,256
2017-12-05T07:02:21.855Z,276
2017-12-05T07:03:31.796Z,300
2017-12-05T07:04:40.959Z,348
2017-12-05T07:05:50.903Z,344
2017-12-05T07:07:00.850Z,388
2017-12-05T07:08:10.282Z,380
2017-12-05T07:09:20.235Z,368
2017-12-05T07:10:29.917Z,448
2017-12-05T07:11:39.356Z,432
2017-12-05T07:12:48.786Z,448
2017-12-05T07:13:58.475Z,476
2017-12-05T07:15:07.917Z,524
2017-12-05T07:16:17.868Z,516
2017-12-05T07:17:27.818Z,448
2017-12-05T07:18:37.763Z,524
2017-12-05T07:19:46.942Z,520
2017-12-05T07:20:56.896Z,564
2017-12-05T07:22:06.581Z,560
2017-12-05T07:23:16.277Z,504
2017-12-05T07:24:25.963Z,540
2017-12-05T07:25:35.717Z,532
2017-12-05T07:26:45.651Z,532
2017-12-05T07:27:55.093Z,596
2017-12-05T07:29:05.050Z,640
2017-12-05T07:30:14.519Z,676
2017-12-05T07:31:24.491Z,680
2017-12-05T07:32:34.219Z,632
2017-12-05T07:33:43.928Z,572
2017-12-05T07:34:53.904Z,568
2017-12-05T07:36:03.662Z,620
2017-12-05T07:37:13.366Z,672
2017-12-05T07:38:22.850Z,808
2017-12-05T07:39:32.806Z,928
2017-12-05T07:40:42.750Z,936
2017-12-05T07:41:52.705Z,936
2017-12-05T07:43:02.674Z,1064
2017-12-05T07:44:12.366Z,1060
2017-12-05T07:45:22.306Z,824
2017-12-05T07:46:32.021Z,1028
2017-12-05T07:47:41.459Z,1264
2017-12-05T07:48:51.173Z,1520
2017-12-05T07:50:01.146Z,1480
2017-12-05T07:51:10.894Z,1516
2017-12-05T07:52:20.506Z,1440
2017-12-05T07:53:29.933Z,1508
2017-12-05T07:54:39.935Z,1688
2017-12-05T07:55:49.634Z,1800
2017-12-05T07:56:59.604Z,2028
2017-12-05T07:58:09.376Z,1804
2017-12-05T07:59:19.087Z,1852
2017-12-05T08:00:28.529Z,2172
2017-12-05T08:01:37.966Z,1748
2017-12-05T08:02:47.954Z,1444
2017-12-05T08:03:57.675Z,1400
2017-12-05T08:05:07.128Z,1536
2017-12-05T08:06:16.825Z,1476
2017-12-05T08:07:26.524Z,1524
2017-12-05T08:08:36.248Z,1696
2017-12-05T08:09:45.698Z,2684
2017-12-05T08:10:55.693Z,3100
2017-12-05T08:12:05.655Z,2624
2017-12-05T08:13:15.612Z,3392
2017-12-05T08:14:25.318Z,3124
2017-12-05T08:15:35.295Z,3196
2017-12-05T08:16:44.749Z,3140
2017-12-05T08:17:54.739Z,3588
2017-12-05T08:19:04.442Z,3516
2017-12-05T08:20:14.147Z,3272
2017-12-05T08:21:23.841Z,3312
2017-12-05T08:22:33.790Z,3160
2017-12-05T08:23:43.500Z,3728
2017-12-05T08:24:53.730Z,3988
2017-12-05T08:26:03.439Z,3296
2017-12-05T08:27:13.139Z,3120
2017-12-05T08:28:22.853Z,2892
2017-12-05T08:29:32.554Z,2940
2017-12-05T08:30:42.296Z,3464
2017-12-05T08:31:52.269Z,2688
2017-12-05T08:33:02.221Z,3016
2017-12-05T08:34:11.913Z,2988
2017-12-05T08:35:21.920Z,3196
2017-12-05T08:36:31.609Z,2980
2017-12-05T08:37:41.611Z,2672
2017-12-05T08:38:51.577Z,2544
2017-12-05T08:40:01.287Z,2824
2017-12-05T08:41:10.978Z,2500
2017-12-05T08:42:20.668Z,2584
2017-12-05T08:43:30.395Z,2508
2017-12-05T08:44:39.841Z,2804
2017-12-05T08:45:49.543Z,2952
2017-12-05T08:46:59.493Z,3028
2017-12-05T08:48:08.931Z,2736
2017-12-05T08:49:18.630Z,2488
2017-12-05T08:50:28.335Z,2432
2017-12-05T08:51:38.039Z,2668
2017-12-05T08:52:47.729Z,2848
2017-12-05T08:53:57.719Z,3336
2017-12-05T08:55:07.707Z,3320
2017-12-05T08:56:17.435Z,2884
2017-12-05T08:57:27.196Z,2532
2017-12-05T08:58:37.150Z,2724
2017-12-05T08:59:46.887Z,2788
2017-12-05T09:00:56.884Z,3744
2017-12-05T09:02:06.339Z,3212
2017-12-05T09:03:16.347Z,3548
2017-12-05T09:04:25.814Z,4212
2017-12-05T09:05:35.754Z,3732
2017-12-05T09:06:45.738Z,5780
2017-12-05T09:07:55.439Z,6340
2017-12-05T09:09:05.141Z,4876
2017-12-05T09:10:14.881Z,5708
2017-12-05T09:11:24.427Z,5068
2017-12-05T09:12:34.488Z,4688
2017-12-05T09:13:44.179Z,4180
2017-12-05T09:14:53.616Z,4484
2017-12-05T09:16:03.577Z,4200
2017-12-05T09:17:13.537Z,5020
2017-12-05T09:18:23.513Z,5268
2017-12-05T09:19:33.515Z,3844
2017-12-05T09:20:43.066Z,4288
2017-12-05T09:21:53.342Z,4380
2017-12-05T09:23:03.295Z,5024
2017-12-05T09:24:12.768Z,5172
2017-12-05T09:25:22.707Z,5348
2017-12-05T09:26:31.902Z,4372
2017-12-05T09:27:41.329Z,4268
2017-12-05T09:28:51.029Z,4712
2017-12-05T09:30:00.488Z,4280
2017-12-05T09:31:09.942Z,3224
2017-12-05T09:32:19.673Z,2996
2017-12-05T09:33:29.372Z,4244
2017-12-05T09:34:39.073Z,3976
2017-12-05T09:35:48.499Z,4008
2017-12-05T09:36:57.945Z,3484
2017-12-05T09:38:07.392Z,2908
2017-12-05T09:39:16.835Z,3280
2017-12-05T09:40:26.530Z,3408
2017-12-05T09:41:35.712Z,4056
2017-12-05T09:42:45.655Z,3252
2017-12-05T09:43:55.355Z,3284
2017-12-05T09:45:05.303Z,3856
2017-12-05T09:46:15.292Z,2900
2017-12-05T09:47:24.722Z,2592
2017-12-05T09:48:34.675Z,2380
2017-12-05T09:49:44.166Z,2700
2017-12-05T09:50:53.582Z,3084
2017-12-05T09:52:03.655Z,3736
2017-12-05T09:53:13.098Z,3444
2017-12-05T09:54:22.814Z,4684
2017-12-05T09:55:32.280Z,5128
2017-12-05T09:56:42.250Z,3708
2017-12-05T09:57:52.210Z,2496
2017-12-05T09:59:01.889Z,2840
2017-12-05T10:00:11.851Z,3332
2017-12-05T10:01:21.801Z,3376
2017-12-05T10:02:31.747Z,3956
2017-12-05T10:03:41.181Z,3400
2017-12-05T10:04:50.892Z,3456
2017-12-05T10:06:00.579Z,3440
2017-12-05T10:07:10.285Z,3572
2017-12-05T10:08:19.711Z,3480
2017-12-05T10:09:29.166Z,2888
2017-12-05T10:10:38.618Z,2740
2017-12-05T10:11:48.328Z,3324
2017-12-05T10:12:57.524Z,3428
2017-12-05T10:14:07.466Z,5336
2017-12-05T10:15:16.910Z,7452
2017-12-05T10:16:26.361Z,8604
2017-12-05T10:17:36.142Z,9272
2017-12-05T10:18:46.219Z,7956
2017-12-05T10:19:56.192Z,8420
2017-12-05T10:21:05.895Z,7344
2017-12-05T10:22:15.338Z,8140
2017-12-05T10:23:25.288Z,6912
2017-12-05T10:24:34.730Z,5172
2017-12-05T10:25:44.491Z,5204
2017-12-05T10:26:53.930Z,5876
2017-12-05T10:28:03.879Z,5580
2017-12-05T10:29:13.318Z,5412
2017-12-05T10:30:23.292Z,6696
2017-12-05T10:31:32.987Z,6120
2017-12-05T10:32:43.003Z,6752
2017-12-05T10:33:52.965Z,7424
2017-12-05T10:35:02.928Z,7692
2017-12-05T10:36:12.878Z,7072
2017-12-05T10:37:22.570Z,5328
2017-12-05T10:38:32.280Z,3536
2017-12-05T10:39:42.239Z,3840
2017-12-05T10:40:51.679Z,3004
2017-12-05T10:42:01.115Z,3080
2017-12-05T10:43:11.075Z,2640
2017-12-05T10:44:21.117Z,2612
2017-12-05T10:45:30.876Z,2832
2017-12-05T10:46:40.862Z,2580
2017-12-05T10:47:50.797Z,3420
2017-12-05T10:49:00.814Z,3492
2017-12-05T10:50:10.805Z,3756
2017-12-05T10:51:20.774Z,4420
2017-12-05T10:52:30.787Z,5036
2017-12-05T10:53:40.482Z,5176
2017-12-05T10:54:50.491Z,5232
2017-12-05T10:56:00.455Z,4816
2017-12-05T10:57:10.191Z,5692
2017-12-05T10:58:20.156Z,6128
2017-12-05T10:59:29.865Z,6664
2017-12-05T11:00:39.572Z,5532
2017-12-05T11:01:49.545Z,5180
2017-12-05T11:02:59.290Z,5208
2017-12-05T11:04:09.313Z,5200
2017-12-05T11:05:19.034Z,5748
2017-12-05T11:06:29.002Z,6368
2017-12-05T11:07:38.827Z,6628
2017-12-05T11:08:48.817Z,5152
2017-12-05T11:09:58.810Z,5692
2017-12-05T11:11:08.528Z,4952
2017-12-05T11:12:18.234Z,5604
2017-12-05T11:13:28.215Z,7260
2017-12-05T11:14:38.180Z,8092
2017-12-05T11:15:48.144Z,8336
2017-12-05T11:16:58.122Z,9612
2017-12-05T11:18:07.871Z,9336
2017-12-05T11:19:17.316Z,9824
2017-12-05T11:20:27.289Z,8492
2017-12-05T11:21:36.993Z,8120
2017-12-05T11:22:46.704Z,6992
2017-12-05T11:23:56.404Z,7952
2017-12-05T11:25:06.124Z,9276
2017-12-05T11:26:16.091Z,8384
2017-12-05T11:27:26.060Z,10404
2017-12-05T11:28:35.549Z,9084
2017-12-05T11:29:45.550Z,9172
2017-12-05T11:30:55.417Z,8748
2017-12-05T11:32:05.123Z,8300
2017-12-05T11:33:14.826Z,6756
2017-12-05T11:34:24.264Z,5484
2017-12-05T11:35:34.239Z,5560
2017-12-05T11:36:43.964Z,5156
2017-12-05T11:37:53.418Z,4700
2017-12-05T11:39:03.118Z,4996
2017-12-05T11:40:12.821Z,6032
2017-12-05T11:41:22.799Z,6572
2017-12-05T11:42:32.765Z,5972
2017-12-05T11:43:42.728Z,6076
2017-12-05T11:44:52.699Z,6120
2017-12-05T11:46:02.694Z,6160
2017-12-05T11:47:12.657Z,6100
2017-12-05T11:48:22.611Z,7316
2017-12-05T11:49:32.063Z,8032
2017-12-05T11:50:41.526Z,6912
2017-12-05T11:51:51.497Z,7288
2017-12-05T11:53:00.951Z,7424
2017-12-05T11:54:10.905Z,8036
2017-12-05T11:55:20.886Z,8632
2017-12-05T11:56:30.903Z,7872
2017-12-05T11:57:40.592Z,7356
2017-12-05T11:58:50.554Z,7440
2017-12-05T12:00:00.528Z,6336
2017-12-05T12:01:10.221Z,6752
2017-12-05T12:02:19.917Z,6880
2017-12-05T12:03:29.360Z,7292
2017-12-05T12:04:39.309Z,8272
2017-12-05T12:05:49.060Z,9964
2017-12-05T12:06:58.231Z,7912
2017-12-05T12:08:08.191Z,7432
2017-12-05T12:09:17.913Z,7176
2017-12-05T12:10:27.608Z,6060
2017-12-05T12:11:37.580Z,5648
2017-12-05T12:12:47.283Z,5332
2017-12-05T12:13:57.224Z,5676
2017-12-05T12:15:06.922Z,5708
2017-12-05T12:16:16.888Z,5500
2017-12-05T12:17:26.603Z,5180
2017-12-05T12:18:36.318Z,4704
2017-12-05T12:19:46.261Z,4924
2017-12-05T12:20:55.730Z,6436
2017-12-05T12:22:05.513Z,5716
2017-12-05T12:23:15.217Z,6108
2017-12-05T12:24:25.182Z,6808
2017-12-05T12:25:34.903Z,6736
2017-12-05T12:26:44.855Z,5408
2017-12-05T12:27:54.550Z,5056
2017-12-05T12:29:03.993Z,4340
2017-12-05T12:30:13.705Z,2988
2017-12-05T12:31:23.398Z,2276
2017-12-05T12:32:33.097Z,2448
2017-12-05T12:33:42.805Z,2676
2017-12-05T12:34:52.498Z,2320
2017-12-05T12:36:02.213Z,2648
2017-12-05T12:37:11.914Z,2664
2017-12-05T12:38:21.367Z,2460
2017-12-05T12:39:31.327Z,2096
2017-12-05T12:40:41.022Z,2012
2017-12-05T12:41:50.723Z,2156
2017-12-05T12:43:00.693Z,2060
2017-12-05T12:44:10.662Z,2324
2017-12-05T12:45:20.359Z,2284
2017-12-05T12:46:30.339Z,2092
2017-12-05T12:47:40.320Z,2308
2017-12-05T12:48:49.756Z,2328
2017-12-05T12:49:59.710Z,2452
2017-12-05T12:51:09.412Z,3140
2017-12-05T12:52:19.110Z,3284
2017-12-05T12:53:28.807Z,3536
2017-12-05T12:54:38.245Z,3680
2017-12-05T12:55:48.210Z,3348
2017-12-05T12:56:57.899Z,2724
2017-12-05T12:58:07.081Z,2376
2017-12-05T12:59:17.033Z,2560
2017-12-05T13:00:26.991Z,2408
2017-12-05T13:01:36.966Z,2440
2017-12-05T13:02:46.670Z,2620
2017-12-05T13:03:56.635Z,3396
2017-12-05T13:05:06.600Z,2640
2017-12-05T13:06:16.573Z,2988
2017-12-05T13:07:26.632Z,3268
2017-12-05T13:08:36.071Z,3304
2017-12-05T13:09:46.028Z,4344
2017-12-05T13:10:55.471Z,5304
2017-12-05T13:12:05.157Z,5012
2017-12-05T13:13:14.614Z,5256
2017-12-05T13:14:24.313Z,6464
2017-12-05T13:15:34.281Z,4988
2017-12-05T13:16:44.236Z,5848
2017-12-05T13:17:54.183Z,5836
2017-12-05T13:19:04.234Z,5596
2017-12-05T13:20:13.952Z,5312
2017-12-05T13:21:23.650Z,3992
2017-12-05T13:22:33.109Z,3828
2017-12-05T13:23:43.060Z,3212
2017-12-05T13:24:52.790Z,3100
2017-12-05T13:26:02.540Z,2796
2017-12-05T13:27:12.497Z,2536
2017-12-05T13:28:22.283Z,2856
2017-12-05T13:29:31.986Z,2732
2017-12-05T13:30:41.414Z,2724
2017-12-05T13:31:50.599Z,2544
2017-12-05T13:33:00.557Z,2812
2017-12-05T13:34:10.257Z,2432
2017-12-05T13:35:20.234Z,2096
2017-12-05T13:36:29.934Z,2188
2017-12-05T13:37:39.693Z,2284
2017-12-05T13:38:49.674Z,2020
2017-12-05T13:39:59.381Z,2168
2017-12-05T13:41:08.833Z,1712
2017-12-05T13:42:18.544Z,1744
2017-12-05T13:43:28.486Z,1992
2017-12-05T13:44:38.196Z,2336
2017-12-05T13:45:48.149Z,2596
2017-12-05T13:46:57.846Z,2360
2017-12-05T13:48:07.809Z,2020
2017-12-05T13:49:17.778Z,2028
2017-12-05T13:50:27.237Z,1796
2017-12-05T13:51:37.258Z,1540
2017-12-05T13:52:47.297Z,1368
2017-12-05T13:53:56.746Z,1108
2017-12-05T13:55:06.191Z,1060
2017-12-05T13:56:15.902Z,1128
2017-12-05T13:57:25.599Z,1184
2017-12-05T13:58:35.301Z,1032
2017-12-05T13:59:45.014Z,916
2017-12-05T14:00:55.044Z,824
2017-12-05T14:02:05.087Z,808
2017-12-05T14:03:14.802Z,896
2017-12-05T14:04:24.281Z,688
2017-12-05T14:05:34.221Z,780
2017-12-05T14:06:43.921Z,656
2017-12-05T14:07:53.891Z,608
2017-12-05T14:09:03.599Z,756
2017-12-05T14:10:13.297Z,640
2017-12-05T14:11:23.052Z,676
2017-12-05T14:12:32.764Z,1116
2017-12-05T14:13:42.448Z,1436
2017-12-05T14:14:52.187Z,1772
2017-12-05T14:16:02.162Z,1872
2017-12-05T14:17:11.618Z,1636
2017-12-05T14:18:21.584Z,1608
2017-12-05T14:19:31.531Z,1500
2017-12-05T14:20:41.290Z,1172
2017-12-05T14:21:51.254Z,944
2017-12-05T14:23:01.005Z,932
2017-12-05T14:24:10.969Z,1024
2017-12-05T14:25:20.937Z,1088
2017-12-05T14:26:30.112Z,1080
2017-12-05T14:27:39.817Z,1056
2017-12-05T14:28:49.801Z,1004
2017-12-05T14:29:59.777Z,796
2017-12-05T14:31:09.234Z,700
2017-12-05T14:32:18.947Z,784
2017-12-05T14:33:28.659Z,692
2017-12-05T14:34:37.838Z,668
2017-12-05T14:35:47.573Z,588
2017-12-05T14:36:57.554Z,536
2017-12-05T14:38:07.515Z,452
2017-12-05T14:39:17.539Z,400
2017-12-05T14:40:27.490Z,368
2017-12-05T14:41:37.192Z,372
2017-12-05T14:42:46.935Z,336
2017-12-05T14:43:56.901Z,252
2017-12-05T14:45:06.602Z,252
2017-12-05T14:46:16.027Z,244
2017-12-05T14:47:25.737Z,188
2017-12-05T14:48:35.423Z,164
2017-12-05T14:49:45.115Z,216
2017-12-05T14:50:55.069Z,208
2017-12-05T14:52:04.764Z,220
2017-12-05T14:53:14.715Z,192
2017-12-05T14:54:24.726Z,164
2017-12-05T14:55:34.426Z,104
2017-12-05T14:56:44.382Z,96
2017-12-05T14:57:54.100Z,84
2017-12-05T14:59:03.810Z,76
2017-12-05T15:00:13.760Z,52
2017-12-05T15:01:23.702Z,76
2017-12-05T15:02:33.642Z,76
2017-12-05T15:03:43.614Z,64
2017-12-05T15:04:53.583Z,52
2017-12-05T15:06:03.281Z,44
2017-12-05T15:07:12.981Z,36
2017-12-05T15:08:22.159Z,24
2017-12-05T15:09:32.147Z,20
2017-12-05T15:10:41.889Z,16
2017-12-05T15:11:51.863Z,16
2017-12-05T15:13:01.833Z,12
2017-12-05T15:14:11.526Z,8
2017-12-05T15:15:21.229Z,8
2017-12-05T15:16:31.180Z,8
2017-12-05T15:17:40.889Z,8
2017-12-05T15:18:50.894Z,4
2017-12-05T15:20:00.843Z,4
2017-12-05T15:21:10.818Z,4
2017-12-05T15:22:20.331Z,4
2017-12-05T15:23:29.767Z,4
2017-12-05T15:24:39.735Z,0
2017-12-05T15:25:49.421Z,4
2017-12-05T15:26:59.385Z,4
2017-12-05T15:28:09.070Z,0
2017-12-05T15:29:18.758Z,0
2017-12-05T15:30:28.724Z,0
2017-12-05T15:31:38.689Z,0
2017-12-05T15:32:48.130Z,0
2017-12-05T15:33:57.815Z,0
2017-12-05T15:35:07.506Z,0
2017-12-05T15:36:17.469Z,0
2017-12-05T15:37:27.437Z,0
2017-12-05T15:38:36.874Z,0
2017-12-05T15:39:46.345Z,0
2017-12-05T15:40:56.304Z,0
2017-12-05T15:42:06.292Z,0
2017-12-05T15:43:16.001Z,0
2017-12-05T15:44:25.957Z,0
2017-12-05T15:45:35.403Z,0
2017-12-05T15:46:45.097Z,0
2017-12-05T15:47:54.795Z,0
2017-12-05T15:49:04.748Z,0
2017-12-05T15:50:14.759Z,0
2017-12-05T15:51:23.943Z,0
2017-12-05T15:52:33.390Z,0
2017-12-05T15:53:43.352Z,0
2017-12-05T15:54:53.296Z,0
2017-12-05T15:56:03.279Z,0
2017-12-05T15:57:13.271Z,0
2017-12-05T15:58:22.995Z,0
2017-12-05T15:59:32.449Z,0
2017-12-05T16:00:41.900Z,0
2017-12-05T16:01:51.360Z,0
2017-12-05T16:03:01.326Z,0
2017-12-05T16:04:11.068Z,0
2017-12-05T16:05:20.774Z,0
2017-12-05T16:06:30.226Z,0
2017-12-05T16:07:39.913Z,0
2017-12-05T16:08:49.361Z,0
2017-12-05T16:09:58.820Z,0
2017-12-05T16:11:08.770Z,0
2017-12-05T16:12:18.453Z,0
2017-12-05T16:13:28.425Z,0
2017-12-05T16:14:38.467Z,0
2017-12-05T16:15:47.912Z,0
2017-12-05T16:16:57.610Z,0
2017-12-05T16:18:07.320Z,0
2017-12-05T16:19:16.772Z,0
2017-12-05T16:20:26.801Z,0